Time;durP1;ratioP1;P1;durP2;ratioP2;P2;SDS_P1;SDS_P2;PMS_P1;PMS_P2;Temp;Humidity;BMP_temperature;BMP_pressure;BME280_temperature;BME280_humidity;BME280_pressure;Samples;Min_cycle;Max_cycle;Signal;HPM_P1;HPM_P2
2023/07/27 00:01:12;;;;;;;;;;;19.10;46.90;;;18.20;48.45;100807.97;12266245;19;20279;-88
2023/07/27 00:05:14;;;;;;;;;;;19.00;46.80;;;18.07;48.63;100793.19;12264286;19;20317;-88
2023/07/27 00:09:15;;;;;;;;;;;19.00;46.80;;;18.03;48.59;100793.56;12266650;19;19915;-88
2023/07/27 00:13:18;;;;;;;;;;;19.00;46.80;;;18.07;48.53;100814.34;12258095;19;20387;-88
2023/07/27 00:17:19;;;;;;;;;;;18.90;46.80;;;17.97;48.73;100789.66;12259762;19;19915;-88
2023/07/27 00:21:21;;;;;;;;;;;18.90;46.80;;;17.81;48.70;100776.09;12264565;19;19911;-88
2023/07/27 00:25:23;;;;;;;;;;;18.90;46.80;;;17.77;48.59;100764.91;12263896;19;19915;-88
2023/07/27 00:29:24;;;;;;;;;;;18.90;46.80;;;17.97;48.75;100807.31;12264886;19;19950;-88
2023/07/27 00:33:26;;;;;;;;;;;18.80;46.80;;;17.95;48.48;100814.53;12265467;19;19987;-88
2023/07/27 00:37:27;;;;;;;;;;;18.80;46.80;;;17.89;48.62;100806.16;12259515;19;19923;-88
2023/07/27 00:41:29;;;;;;;;;;;18.80;46.90;;;17.86;48.82;100795.84;12265986;19;19982;-88
2023/07/27 00:45:30;;;;;;;;;;;18.80;46.90;;;17.84;48.79;100799.59;12261363;19;19926;-88
2023/07/27 00:49:32;;;;;;;;;;;18.80;46.80;;;17.79;48.63;100797.34;12259854;19;19938;-88
2023/07/27 00:53:34;;;;;;;;;;;18.70;46.80;;;17.73;48.81;100781.97;12260916;19;19914;-89
2023/07/27 00:57:35;;;;;;;;;;;18.70;46.90;;;17.69;48.67;100784.06;12260326;19;19986;-89
2023/07/27 01:01:37;;;;;;;;;;;18.70;46.80;;;17.68;48.73;100784.16;12260388;19;19919;-89
2023/07/27 01:05:39;;;;;;;;;;;18.70;46.80;;;17.66;48.78;100781.66;12258416;19;19992;-88
2023/07/27 01:09:41;;;;;;;;;;;18.60;46.70;;;17.49;48.58;100771.66;12258930;19;19923;-88
2023/07/27 01:13:53;;;;;;;;;;;18.60;46.60;;;17.39;48.67;100763.69;12253789;19;19926;-88
2023/07/27 01:18:15;;;;;;;;;;;18.50;46.60;;;17.46;48.86;100780.69;12253174;19;19946;-88
2023/07/27 01:22:23;;;;;;;;;;;18.40;46.50;;;17.39;48.79;100786.59;12257458;19;19943;-88
2023/07/27 01:27:01;;;;;;;;;;;18.30;46.50;;;17.23;48.89;100773.84;12253353;19;19939;-89
2023/07/27 01:31:09;;;;;;;;;;;18.30;46.50;;;17.13;48.60;100772.94;12256029;19;19918;-88
2023/07/27 01:35:14;;;;;;;;;;;18.10;46.40;;;17.07;48.64;100776.06;12253620;19;19919;-89
2023/07/27 01:39:17;;;;;;;;;;;18.10;46.50;;;16.90;48.73;100764.25;12256719;19;20242;-89
2023/07/27 01:43:19;;;;;;;;;;;17.90;46.30;;;16.89;48.83;100781.88;12256446;19;19930;-88
2023/07/27 01:47:22;;;;;;;;;;;17.90;46.50;;;16.77;49.02;100761.78;12254683;19;19947;-89
2023/07/27 01:51:25;;;;;;;;;;;17.80;46.50;;;16.71;48.70;100765.69;12257475;19;19929;-89
2023/07/27 01:55:28;;;;;;;;;;;17.70;46.40;;;16.64;48.90;100763.69;12253766;19;19930;-89
2023/07/27 01:59:31;;;;;;;;;;;17.60;46.40;;;16.59;48.95;100759.59;12255851;19;20389;-88
2023/07/27 02:03:35;;;;;;;;;;;17.50;46.40;;;16.50;49.10;100759.50;12255462;19;19915;-89
2023/07/27 02:07:37;;;;;;;;;;;17.50;46.40;;;16.44;48.78;100760.81;12251669;19;19925;-88
2023/07/27 02:11:40;;;;;;;;;;;17.40;46.50;;;16.14;48.92;100719.28;12254943;19;19918;-88
2023/07/27 02:15:48;;;;;;;;;;;17.40;46.60;;;16.20;48.80;100733.78;12252484;19;19930;-88
2023/07/27 02:19:56;;;;;;;;;;;17.30;46.60;;;16.30;48.75;100754.00;12259088;19;20327;-88
2023/07/27 02:23:58;;;;;;;;;;;17.20;46.60;;;16.16;48.78;100743.72;12266536;19;19919;-89
2023/07/27 02:28:00;;;;;;;;;;;17.10;46.50;;;16.09;48.96;100748.66;12260786;19;19978;-88
2023/07/27 02:32:03;;;;;;;;;;;17.10;46.60;;;15.88;49.04;100735.34;12266980;19;19974;-88
2023/07/27 02:36:05;;;;;;;;;;;17.10;46.70;;;16.04;49.00;100742.03;12262533;19;19907;-88
2023/07/27 02:40:08;;;;;;;;;;;17.00;46.70;;;16.03;49.02;100750.91;12263974;19;19914;-88
2023/07/27 02:44:10;;;;;;;;;;;17.00;46.70;;;15.99;49.12;100747.69;12265537;19;19926;-88
2023/07/27 02:48:12;;;;;;;;;;;16.90;46.70;;;15.95;49.08;100763.84;12260656;19;19982;-88
2023/07/27 02:52:13;;;;;;;;;;;16.90;46.70;;;15.81;49.18;100760.47;12266025;19;19911;-88
2023/07/27 02:56:16;;;;;;;;;;;16.80;46.70;;;15.83;49.14;100769.09;12261660;19;19918;-88
2023/07/27 03:00:22;;;;;;;;;;;16.80;46.80;;;15.70;49.06;100758.66;12265963;19;19915;-88
2023/07/27 03:04:25;;;;;;;;;;;16.70;46.80;;;15.66;49.02;100757.19;12265605;19;19926;-88
2023/07/27 03:08:28;;;;;;;;;;;16.70;46.70;;;15.48;49.03;100742.78;12264036;19;20103;-88
2023/07/27 03:12:30;;;;;;;;;;;16.60;46.70;;;15.55;48.94;100764.19;12264986;19;19915;-88
2023/07/27 03:16:32;;;;;;;;;;;16.60;46.80;;;15.32;49.21;100740.47;12256930;19;19935;-88
2023/07/27 03:20:41;;;;;;;;;;;16.50;46.70;;;15.44;48.96;100767.63;12261714;19;19921;-88
2023/07/27 03:24:42;;;;;;;;;;;16.50;46.80;;;15.39;49.18;100759.25;12257786;19;19931;-88
2023/07/27 03:28:44;;;;;;;;;;;16.40;46.80;;;15.24;49.15;100743.66;12257299;19;19918;-88
2023/07/27 03:32:45;;;;;;;;;;;16.40;46.90;;;15.40;49.16;100774.94;12256706;19;19923;-88
2023/07/27 03:36:47;;;;;;;;;;;16.30;46.90;;;15.34;49.33;100771.91;12258204;19;19923;-88
2023/07/27 03:40:50;;;;;;;;;;;16.30;46.90;;;14.99;49.30;100715.72;12260295;19;20325;-88
2023/07/27 03:44:52;;;;;;;;;;;16.30;47.00;;;15.16;49.29;100750.44;12256015;19;19927;-88
2023/07/27 03:48:54;;;;;;;;;;;16.20;47.00;;;15.21;49.39;100751.78;12258718;19;19911;-88
2023/07/27 03:52:56;;;;;;;;;;;16.20;47.10;;;15.15;49.38;100751.38;12260467;19;19907;-88
2023/07/27 03:56:58;;;;;;;;;;;16.20;47.10;;;15.16;49.31;100758.34;12257187;19;19922;-88
2023/07/27 04:00:59;;;;;;;;;;;16.10;47.10;;;15.08;49.43;100748.38;12260066;19;19934;-88
2023/07/27 04:05:01;;;;;;;;;;;16.10;47.10;;;15.01;49.43;100739.25;12257797;19;19918;-88
2023/07/27 04:09:03;;;;;;;;;;;16.00;47.20;;;14.97;49.39;100730.75;12258506;19;20259;-88
2023/07/27 04:13:04;;;;;;;;;;;16.00;47.20;;;15.02;49.45;100739.16;12259470;19;20238;-88
2023/07/27 04:17:06;;;;;;;;;;;16.10;47.30;;;14.97;49.58;100730.75;12259488;19;19914;-88
2023/07/27 04:21:07;;;;;;;;;;;16.00;47.50;;;14.96;49.63;100733.50;12254768;19;19927;-88
2023/07/27 04:25:09;;;;;;;;;;;16.00;47.40;;;14.92;49.64;100727.63;12255577;19;19907;-88
2023/07/27 04:29:11;;;;;;;;;;;15.90;47.40;;;14.97;49.60;100738.66;12250594;19;20317;-88
2023/07/27 04:33:12;;;;;;;;;;;16.00;47.50;;;14.89;49.58;100722.59;12250643;19;19918;-88
2023/07/27 04:37:14;;;;;;;;;;;15.90;47.70;;;14.73;49.70;100691.34;12255585;19;19917;-89
2023/07/27 04:41:15;;;;;;;;;;;16.00;47.70;;;14.83;49.67;100702.03;12256528;19;19957;-89
2023/07/27 04:45:17;;;;;;;;;;;16.00;47.70;;;14.98;49.75;100723.72;12254555;19;19924;-88
2023/07/27 04:49:18;;;;;;;;;;;16.10;47.80;;;15.07;49.78;100730.94;12252752;19;19976;-88
2023/07/27 04:53:20;;;;;;;;;;;16.10;47.90;;;15.03;49.92;100716.31;12253639;19;19922;-88
2023/07/27 04:57:21;;;;;;;;;;;16.10;48.00;;;15.18;49.93;100720.44;12253115;19;19918;-88
2023/07/27 05:01:23;;;;;;;;;;;16.20;48.20;;;15.13;49.92;100721.75;12252864;19;19919;-88
2023/07/27 05:05:24;;;;;;;;;;;16.20;48.40;;;15.31;49.85;100743.19;12251131;19;19931;-88
2023/07/27 05:09:26;;;;;;;;;;;16.30;48.70;;;15.23;50.10;100712.22;12243289;19;19953;-88
2023/07/27 05:13:27;;;;;;;;;;;16.40;48.70;;;15.45;50.03;100730.69;12252190;19;20262;-86
2023/07/27 05:17:29;;;;;;;;;;;16.40;49.00;;;15.55;50.11;100730.81;12247417;19;20428;-85
2023/07/27 05:21:30;;;;;;;;;;;16.60;49.80;;;15.63;50.10;100725.81;12252920;19;19915;-84
2023/07/27 05:25:32;;;;;;;;;;;16.70;49.80;;;15.75;50.20;100728.50;12255171;19;19927;-84
2023/07/27 05:29:34;;;;;;;;;;;16.80;49.40;;;15.86;50.20;100726.72;12253623;19;19926;-83
2023/07/27 05:33:35;;;;;;;;;;;16.90;49.50;;;15.96;50.45;100726.84;12254169;19;20028;-83
2023/07/27 05:37:37;;;;;;;;;;;17.00;49.80;;;16.05;50.36;100720.03;12253459;19;19919;-84
2023/07/27 05:41:39;;;;;;;;;;;17.20;49.60;;;16.19;50.43;100727.66;12256473;19;19926;-83
2023/07/27 05:45:40;;;;;;;;;;;17.20;50.40;;;16.00;50.42;100675.59;12252729;19;19911;-83
2023/07/27 05:49:42;;;;;;;;;;;17.40;50.10;;;16.28;50.39;100707.66;12254010;19;19915;-84
2023/07/27 05:53:44;;;;;;;;;;;17.50;50.10;;;16.47;50.68;100709.66;12254088;19;20250;-83
2023/07/27 05:57:46;;;;;;;;;;;17.60;50.30;;;16.66;50.66;100703.75;12263476;19;19925;-83
2023/07/27 06:01:47;;;;;;;;;;;17.80;52.20;;;16.97;50.68;100721.41;12263498;19;19914;-84
2023/07/27 06:05:49;;;;;;;;;;;18.00;50.90;;;17.16;50.85;100723.38;12262430;19;20239;-84
2023/07/27 06:09:51;;;;;;;;;;;18.20;50.20;;;17.31;51.06;100709.84;12264130;19;19917;-84
2023/07/27 06:13:53;;;;;;;;;;;18.50;50.90;;;17.51;50.86;100706.38;12259946;19;19915;-83
2023/07/27 06:17:54;;;;;;;;;;;18.70;50.00;;;17.73;50.79;100715.13;12259131;19;19918;-83
2023/07/27 06:21:56;;;;;;;;;;;18.90;50.00;;;17.89;51.09;100710.22;12259191;19;19943;-83
2023/07/27 06:25:57;;;;;;;;;;;19.10;50.00;;;17.95;51.21;100683.25;12260595;19;19939;-83
2023/07/27 06:29:59;;;;;;;;;;;19.30;50.30;;;18.26;50.81;100717.59;12259279;19;19918;-84
2023/07/27 06:34:01;;;;;;;;;;;19.50;49.60;;;18.36;50.87;100713.16;12260887;19;20265;-84
2023/07/27 06:38:02;;;;;;;;;;;19.60;49.70;;;18.46;50.81;100698.16;12256905;19;19915;-84
2023/07/27 06:42:04;;;;;;;;;;;19.70;49.30;;;18.41;50.93;100670.44;12263789;19;19951;-84
2023/07/27 06:46:08;;;;;;;;;;;19.80;49.50;;;18.64;50.79;100686.91;12246500;19;19919;-83
2023/07/27 06:50:10;;;;;;;;;;;19.90;49.10;;;18.75;50.71;100700.88;12253478;19;19925;-83
2023/07/27 06:54:11;;;;;;;;;;;20.10;48.90;;;18.89;50.63;100696.97;12251760;19;19938;-84
2023/07/27 06:58:13;;;;;;;;;;;20.10;49.40;;;18.91;50.88;100695.03;12255051;19;19923;-84
2023/07/27 07:02:14;;;;;;;;;;;20.20;48.80;;;19.04;50.69;100696.53;12251876;19;19918;-84
2023/07/27 07:06:15;;;;;;;;;;;20.30;48.90;;;19.14;50.83;100703.50;12250271;19;19915;-84
2023/07/27 07:10:18;;;;;;;;;;;20.40;48.50;;;19.13;50.70;100690.41;12255415;19;19923;-84
2023/07/27 07:14:20;;;;;;;;;;;20.40;48.50;;;19.34;50.79;100704.31;12253009;19;20366;-84
2023/07/27 07:18:21;;;;;;;;;;;20.50;48.60;;;19.44;50.83;100701.63;12250215;19;19927;-85
2023/07/27 07:22:23;;;;;;;;;;;20.60;48.50;;;19.42;50.72;100688.56;12254216;19;20267;-84
2023/07/27 07:26:24;;;;;;;;;;;20.70;48.50;;;19.44;50.70;100668.06;12255139;19;19932;-84
2023/07/27 07:30:26;;;;;;;;;;;20.80;48.40;;;19.69;50.51;100679.03;12253003;19;19942;-84
2023/07/27 07:34:28;;;;;;;;;;;20.90;48.40;;;19.92;50.77;100683.94;12251401;19;19994;-84
2023/07/27 07:38:29;;;;;;;;;;;21.10;48.50;;;20.01;50.75;100669.81;12254854;19;19923;-84
2023/07/27 07:42:31;;;;;;;;;;;21.20;48.20;;;20.08;50.74;100663.78;12255691;19;19923;-85
2023/07/27 07:46:34;;;;;;;;;;;21.30;48.30;;;20.30;50.82;100675.78;12258232;19;19919;-84
2023/07/27 07:50:38;;;;;;;;;;;21.50;48.30;;;20.40;50.64;100664.28;12257481;19;19919;-84
2023/07/27 07:54:40;;;;;;;;;;;21.60;48.30;;;20.56;50.62;100661.84;12256942;19;19954;-85
2023/07/27 07:58:42;;;;;;;;;;;21.80;47.80;;;20.62;50.35;100655.09;12256341;19;19919;-84
2023/07/27 08:02:44;;;;;;;;;;;21.80;47.80;;;20.76;50.70;100660.69;12257362;19;19982;-84
2023/07/27 08:06:45;;;;;;;;;;;22.00;47.60;;;20.85;50.27;100658.94;12249067;19;20408;-85
2023/07/27 08:10:47;;;;;;;;;;;22.00;47.50;;;20.90;50.33;100662.00;12254572;19;19918;-85
2023/07/27 08:14:49;;;;;;;;;;;22.10;47.50;;;20.58;50.45;100606.81;12244153;19;19926;-85
2023/07/27 08:18:51;;;;;;;;;;;22.20;47.00;;;20.94;50.39;100662.50;12251179;19;20264;-84
2023/07/27 08:22:52;;;;;;;;;;;22.20;47.20;;;21.01;50.19;100663.56;12253742;19;19933;-85
2023/07/27 08:26:54;;;;;;;;;;;22.20;47.30;;;21.03;50.58;100661.56;12253078;19;20348;-85
2023/07/27 08:30:55;;;;;;;;;;;22.30;47.40;;;21.06;50.29;100655.94;12256874;19;19925;-85
2023/07/27 08:34:56;;;;;;;;;;;22.30;47.40;;;21.08;50.53;100658.47;12239113;19;20343;-85
2023/07/27 08:38:58;;;;;;;;;;;22.30;47.40;;;20.97;50.02;100635.63;12249026;19;19930;-85
2023/07/27 08:43:05;;;;;;;;;;;22.30;47.50;;;21.04;50.35;100643.84;12250461;19;19955;-84
2023/07/27 08:47:07;;;;;;;;;;;22.30;47.40;;;21.08;50.31;100643.34;12248840;19;20755;-85
2023/07/27 08:51:08;;;;;;;;;;;22.30;47.30;;;21.09;49.89;100647.69;12253813;19;19929;-85
2023/07/27 08:55:10;;;;;;;;;;;22.20;47.20;;;20.97;50.09;100636.47;12248327;19;19923;-85
2023/07/27 08:59:12;;;;;;;;;;;22.20;47.30;;;21.02;50.29;100635.19;12255348;19;19927;-85
2023/07/27 09:03:14;;;;;;;;;;;22.20;47.40;;;21.09;49.92;100642.38;12256836;19;20249;-85
2023/07/27 09:07:16;;;;;;;;;;;22.20;47.40;;;21.08;50.10;100643.34;12244186;19;19931;-85
2023/07/27 09:11:19;;;;;;;;;;;22.20;47.40;;;20.90;50.08;100608.03;12258529;19;19919;-85
2023/07/27 09:15:20;;;;;;;;;;;22.20;47.20;;;20.98;50.07;100621.38;12252265;19;19943;-85
2023/07/27 09:19:22;;;;;;;;;;;22.10;47.40;;;20.87;50.28;100595.91;12251484;19;20552;-84
2023/07/27 09:23:24;;;;;;;;;;;22.10;47.30;;;20.93;50.17;100608.56;12252261;19;19947;-85
2023/07/27 09:27:25;;;;;;;;;;;22.10;47.40;;;20.98;50.14;100608.94;12232671;19;19918;-85
2023/07/27 09:31:32;;;;;;;;;;;22.00;47.40;;;20.97;50.10;100606.44;12256692;19;19921;-85
2023/07/27 09:35:35;;;;;;;;;;;22.00;47.40;;;20.89;49.79;100588.63;12256482;19;19923;-85
2023/07/27 09:39:42;;;;;;;;;;;22.00;47.40;;;20.93;50.04;100587.34;12264831;19;19926;-84
2023/07/27 09:43:44;;;;;;;;;;;22.00;47.70;;;20.95;49.72;100596.00;12265424;19;19919;-84
2023/07/27 09:47:47;;;;;;;;;;;22.00;47.90;;;20.88;50.04;100573.69;12261837;19;19935;-84
2023/07/27 09:51:50;;;;;;;;;;;22.00;47.80;;;20.88;49.83;100562.25;12266053;19;19918;-85
2023/07/27 09:55:52;;;;;;;;;;;22.00;48.00;;;20.96;50.02;100571.09;12260558;19;19923;-84
2023/07/27 09:59:54;;;;;;;;;;;22.00;48.20;;;20.98;49.89;100576.22;12268746;19;19917;-84
2023/07/27 10:03:58;;;;;;;;;;;22.00;48.00;;;20.84;50.11;100543.13;12271700;19;19910;-85
2023/07/27 10:08:00;;;;;;;;;;;22.00;48.50;;;20.99;49.98;100567.28;12262430;19;19931;-84
2023/07/27 10:12:04;;;;;;;;;;;22.00;48.20;;;21.03;50.03;100567.81;12267681;19;19918;-84
2023/07/27 10:16:16;;;;;;;;;;;22.00;48.20;;;21.04;50.03;100564.19;12263822;19;19914;-84
2023/07/27 10:20:26;;;;;;;;;;;22.00;48.10;;;21.08;50.02;100565.50;12264498;19;19915;-84
2023/07/27 10:24:44;;;;;;;;;;;22.00;48.50;;;21.10;49.80;100556.41;12260177;19;19914;-85
2023/07/27 10:28:50;;;;;;;;;;;22.00;48.10;;;21.16;49.98;100555.78;12267037;19;20459;-85
2023/07/27 10:33:15;;;;;;;;;;;22.10;48.10;;;21.21;50.00;100534.06;12270419;19;19915;-85
2023/07/27 10:37:17;;;;;;;;;;;22.20;48.10;;;21.34;49.89;100541.59;12256623;19;19935;-85
2023/07/27 10:41:24;;;;;;;;;;;22.30;48.20;;;21.42;50.05;100537.19;12260673;19;19915;-84
2023/07/27 10:45:27;;;;;;;;;;;22.30;48.20;;;21.47;50.12;100522.56;12263895;19;19950;-84
2023/07/27 10:49:28;;;;;;;;;;;22.50;48.10;;;21.58;49.83;100515.16;12265525;19;19990;-84
2023/07/27 10:53:30;;;;;;;;;;;22.50;48.00;;;21.59;49.85;100498.19;12264960;19;19922;-84
2023/07/27 10:57:32;;;;;;;;;;;22.70;48.00;;;21.80;49.67;100515.53;12265331;19;19915;-84
2023/07/27 11:01:34;;;;;;;;;;;22.70;48.00;;;21.80;49.92;100500.41;12270611;19;19971;-85
2023/07/27 11:05:38;;;;;;;;;;;22.80;47.80;;;22.01;49.78;100505.28;12266557;19;19915;-85
2023/07/27 11:09:44;;;;;;;;;;;23.00;48.10;;;22.12;50.17;100504.13;12264251;19;19919;-85
2023/07/27 11:13:46;;;;;;;;;;;23.10;47.70;;;22.16;49.91;100486.00;12263230;19;19923;-85
2023/07/27 11:17:49;;;;;;;;;;;23.20;47.70;;;22.34;49.91;100504.50;12256616;19;19927;-85
2023/07/27 11:21:51;;;;;;;;;;;23.30;47.40;;;22.38;50.05;100495.97;12267079;19;19927;-85
2023/07/27 11:25:52;;;;;;;;;;;23.40;47.40;;;22.38;49.85;100468.56;12263305;19;19951;-85
2023/07/27 11:29:54;;;;;;;;;;;23.50;47.50;;;22.50;49.78;100478.69;12265772;19;19911;-85
2023/07/27 11:33:59;;;;;;;;;;;23.60;47.50;;;22.56;50.02;100473.69;12266645;19;19946;-84
2023/07/27 11:38:01;;;;;;;;;;;23.60;47.40;;;22.44;49.53;100439.44;12263594;19;19926;-85
2023/07/27 11:42:09;;;;;;;;;;;23.70;47.40;;;22.76;49.94;100472.31;12254641;19;19926;-86
2023/07/27 11:46:11;;;;;;;;;;;23.80;47.30;;;22.83;49.62;100480.47;12258413;19;20490;-84
2023/07/27 11:50:16;;;;;;;;;;;23.90;47.30;;;22.87;49.51;100469.31;12257295;19;19938;-84
2023/07/27 11:54:22;;;;;;;;;;;23.90;47.10;;;22.81;49.50;100448.66;12259583;19;19922;-84
2023/07/27 11:58:27;;;;;;;;;;;24.00;47.40;;;22.99;49.74;100458.31;12256081;19;20260;-85
2023/07/27 12:02:32;;;;;;;;;;;24.00;47.40;;;22.75;49.74;100414.75;12256254;19;19922;-85
2023/07/27 12:06:34;;;;;;;;;;;24.00;47.60;;;22.92;49.65;100424.31;12250171;19;19927;-84
2023/07/27 12:10:36;;;;;;;;;;;24.00;47.70;;;23.09;49.41;100450.94;12250958;19;19918;-83
2023/07/27 12:14:40;;;;;;;;;;;24.10;47.60;;;23.09;49.56;100454.44;12246269;19;19929;-83
2023/07/27 12:18:41;;;;;;;;;;;24.10;47.60;;;23.01;49.37;100448.28;12250852;19;20380;-84
2023/07/27 12:22:43;;;;;;;;;;;24.10;47.80;;;23.02;49.60;100456.13;12250561;19;19919;-83
2023/07/27 12:26:45;;;;;;;;;;;24.10;47.80;;;22.92;49.32;100460.78;12240134;19;19919;-83
2023/07/27 12:30:46;;;;;;;;;;;24.00;48.00;;;22.78;49.63;100450.84;12229913;19;19914;-83
2023/07/27 12:34:48;;;;;;;;;;;23.90;47.90;;;22.72;49.57;100444.38;12239139;19;19922;-83
2023/07/27 12:38:49;;;;;;;;;;;23.80;48.00;;;22.76;49.50;100443.03;12238927;19;19951;-82
2023/07/27 12:42:51;;;;;;;;;;;23.70;48.20;;;22.73;49.63;100451.34;12243997;19;20264;-84
2023/07/27 12:46:53;;;;;;;;;;;23.70;48.30;;;22.74;49.80;100447.72;12237983;19;19929;-83
2023/07/27 12:50:54;;;;;;;;;;;23.60;48.40;;;22.65;49.82;100419.44;12239743;19;20238;-84
2023/07/27 12:54:56;;;;;;;;;;;23.60;48.60;;;22.59;49.64;100409.47;12238373;19;20445;-83
2023/07/27 12:58:58;;;;;;;;;;;23.60;48.70;;;22.60;49.63;100421.78;12244147;19;20283;-83
2023/07/27 13:03:00;;;;;;;;;;;23.50;48.60;;;22.61;49.92;100407.47;12245590;19;19974;-84
2023/07/27 13:07:01;;;;;;;;;;;23.50;48.90;;;22.67;49.50;100412.09;12244039;19;19943;-84
2023/07/27 13:11:03;;;;;;;;;;;23.50;49.10;;;22.63;49.93;100397.47;12245244;19;19942;-83
2023/07/27 13:15:05;;;;;;;;;;;23.50;49.00;;;22.70;49.53;100407.25;12244023;19;19915;-85
2023/07/27 13:19:15;;;;;;;;;;;23.50;49.40;;;22.70;49.97;100406.44;12242963;19;19930;-84
2023/07/27 13:23:16;;;;;;;;;;;23.50;49.40;;;22.63;49.94;100389.47;12243862;19;19919;-84
2023/07/27 13:27:18;;;;;;;;;;;23.50;49.30;;;22.69;49.93;100400.28;12237330;19;20385;-84
2023/07/27 13:31:22;;;;;;;;;;;23.50;49.40;;;22.66;49.87;100395.31;12240645;19;20315;-84
2023/07/27 13:35:24;;;;;;;;;;;23.50;49.90;;;22.60;49.95;100385.38;12240881;19;20388;-84
2023/07/27 13:39:26;;;;;;;;;;;23.50;49.80;;;22.67;49.86;100396.13;12242448;19;19926;-84
2023/07/27 13:43:28;;;;;;;;;;;23.50;49.30;;;22.62;49.65;100386.00;12243972;19;19952;-84
2023/07/27 13:47:30;;;;;;;;;;;23.50;49.40;;;22.63;50.15;100386.81;12238337;19;19918;-85
2023/07/27 13:51:31;;;;;;;;;;;23.50;49.70;;;22.61;50.14;100383.53;12242271;19;20237;-84
2023/07/27 13:55:36;;;;;;;;;;;23.60;50.10;;;22.56;49.79;100372.56;12240570;19;19957;-85
2023/07/27 13:59:37;;;;;;;;;;;23.50;49.70;;;22.64;49.75;100361.88;12243008;19;19926;-84
2023/07/27 14:03:43;;;;;;;;;;;23.50;49.90;;;22.52;50.25;100351.63;12239716;19;20235;-84
2023/07/27 14:07:44;;;;;;;;;;;23.40;49.80;;;22.62;49.86;100355.88;12238397;19;19922;-84
2023/07/27 14:11:46;;;;;;;;;;;23.40;49.60;;;22.51;49.88;100347.28;12242564;19;19918;-84
2023/07/27 14:15:47;;;;;;;;;;;23.40;50.20;;;22.51;50.12;100344.63;12241853;19;19922;-84
2023/07/27 14:19:49;;;;;;;;;;;23.40;50.30;;;22.53;49.88;100353.25;12254732;19;20219;-83
2023/07/27 14:23:50;;;;;;;;;;;23.40;50.30;;;22.45;50.27;100379.06;12254627;19;19935;-84
2023/07/27 14:27:52;;;;;;;;;;;23.40;50.70;;;22.49;49.97;100361.75;12251481;19;19922;-84
2023/07/27 14:31:54;;;;;;;;;;;23.30;50.60;;;22.39;50.16;100364.63;12253740;19;19978;-84
2023/07/27 14:35:55;;;;;;;;;;;23.30;51.00;;;22.28;50.29;100352.50;12252461;19;19938;-84
2023/07/27 14:39:57;;;;;;;;;;;23.20;50.20;;;22.25;50.14;100350.19;12246595;19;19959;-85
2023/07/27 14:43:58;;;;;;;;;;;23.10;50.20;;;22.22;50.22;100349.69;12249129;19;19918;-84
2023/07/27 14:47:59;;;;;;;;;;;23.00;50.30;;;22.13;50.23;100337.38;12245610;19;19915;-84
2023/07/27 14:52:01;;;;;;;;;;;23.00;50.40;;;22.11;50.13;100348.19;12246529;19;19943;-85
2023/07/27 14:56:03;;;;;;;;;;;23.00;50.30;;;22.08;50.56;100336.03;12243801;19;19923;-85
2023/07/27 15:00:05;;;;;;;;;;;22.90;51.40;;;22.03;50.23;100330.41;12248345;19;19923;-84
2023/07/27 15:04:06;;;;;;;;;;;22.80;50.40;;;21.83;50.61;100297.22;12251636;19;20277;-85
2023/07/27 15:08:08;;;;;;;;;;;22.80;50.40;;;21.99;50.31;100307.81;12247108;19;19936;-85
2023/07/27 15:12:10;;;;;;;;;;;22.80;50.20;;;21.97;50.28;100287.72;12252052;19;19919;-84
2023/07/27 15:16:11;;;;;;;;;;;22.80;50.30;;;22.03;50.64;100295.00;12246720;19;19933;-85
2023/07/27 15:20:13;;;;;;;;;;;22.80;50.30;;;21.97;50.64;100277.91;12254035;19;19931;-84
2023/07/27 15:24:15;;;;;;;;;;;22.80;51.70;;;21.91;50.38;100275.94;12255195;19;19919;-84
2023/07/27 15:28:16;;;;;;;;;;;22.80;50.80;;;21.97;50.42;100293.84;12248774;19;20384;-84
2023/07/27 15:32:17;;;;;;;;;;;22.80;51.00;;;21.93;50.74;100292.56;12250930;19;19926;-85
2023/07/27 15:36:19;;;;;;;;;;;22.70;50.60;;;21.81;50.78;100265.47;12250217;19;19918;-85
2023/07/27 15:40:20;;;;;;;;;;;22.70;50.40;;;21.79;50.57;100259.53;12248733;19;19942;-85
2023/07/27 15:44:21;;;;;;;;;;;22.70;50.60;;;21.76;50.52;100256.34;12253252;19;19918;-84
2023/07/27 15:48:24;;;;;;;;;;;22.60;50.50;;;21.67;50.46;100238.78;12246804;19;19919;-85
2023/07/27 15:52:25;;;;;;;;;;;22.60;50.30;;;21.73;50.64;100251.38;12250336;19;20331;-85
2023/07/27 15:56:27;;;;;;;;;;;22.60;50.40;;;21.72;50.59;100249.72;12246324;19;19943;-84
2023/07/27 16:00:28;;;;;;;;;;;22.50;50.70;;;21.73;50.87;100241.56;12248272;19;19978;-85
2023/07/27 16:04:30;;;;;;;;;;;22.50;50.60;;;21.71;50.69;100234.75;12251409;19;19919;-85
2023/07/27 16:08:31;;;;;;;;;;;22.50;50.40;;;21.69;50.82;100226.97;12245101;19;19939;-84
2023/07/27 16:12:36;;;;;;;;;;;22.50;51.00;;;21.46;50.71;100194.94;12245190;19;19922;-84
2023/07/27 16:16:40;;;;;;;;;;;22.50;51.40;;;21.58;50.79;100225.50;12239440;19;20285;-84
2023/07/27 16:20:42;;;;;;;;;;;22.50;51.90;;;21.55;51.15;100225.84;12249239;19;19939;-84
2023/07/27 16:24:51;;;;;;;;;;;22.40;51.20;;;21.28;51.06;100186.28;12246409;19;19923;-84
2023/07/27 16:28:53;;;;;;;;;;;22.30;51.00;;;21.45;51.15;100219.88;12242681;19;19986;-84
2023/07/27 16:32:54;;;;;;;;;;;22.30;50.90;;;21.32;50.64;100203.56;12234364;19;20400;-84
2023/07/27 16:36:56;;;;;;;;;;;22.20;50.80;;;21.38;50.75;100216.22;12244572;19;19915;-85
2023/07/27 16:40:58;;;;;;;;;;;22.20;50.80;;;21.31;51.06;100199.25;12243715;19;19944;-85
2023/07/27 16:45:00;;;;;;;;;;;22.10;50.60;;;21.24;50.98;100206.22;12245661;19;21678;-85
2023/07/27 16:49:02;;;;;;;;;;;22.10;51.60;;;21.27;50.79;100219.19;12242848;19;19921;-85
2023/07/27 16:53:03;;;;;;;;;;;22.10;51.00;;;21.09;51.05;100214.03;12244880;19;19982;-86
2023/07/27 16:57:04;;;;;;;;;;;22.00;51.60;;;21.05;51.27;100220.66;12241794;19;19914;-86
2023/07/27 17:01:17;;;;;;;;;;;21.90;51.70;;;20.92;51.34;100218.50;12246529;19;19918;-86
2023/07/27 17:05:19;;;;;;;;;;;21.80;52.10;;;20.69;51.30;100176.69;12245813;19;19966;-86
2023/07/27 17:09:20;;;;;;;;;;;21.70;51.50;;;20.84;51.42;100205.22;12235122;19;19937;-86
2023/07/27 17:13:21;;;;;;;;;;;21.70;51.30;;;20.80;51.35;100199.41;12241931;19;20373;-86
2023/07/27 17:17:22;;;;;;;;;;;21.60;52.00;;;20.83;51.35;100200.91;12241572;19;19942;-86
2023/07/27 17:21:24;;;;;;;;;;;21.60;51.80;;;20.82;50.99;100199.22;12244123;19;20333;-86
2023/07/27 17:25:25;;;;;;;;;;;21.60;51.80;;;20.79;51.12;100187.13;12243352;19;19968;-86
2023/07/27 17:29:27;;;;;;;;;;;21.60;51.30;;;20.65;51.37;100171.84;12240762;19;19918;-86
2023/07/27 17:33:29;;;;;;;;;;;21.50;51.20;;;20.68;51.21;100184.78;12245464;19;20258;-86
2023/07/27 17:37:31;;;;;;;;;;;21.50;52.30;;;20.44;51.40;100162.50;12239142;19;19985;-83
2023/07/27 17:41:32;;;;;;;;;;;21.40;51.80;;;20.57;51.26;100187.75;12244463;19;19933;-83
2023/07/27 17:45:33;;;;;;;;;;;21.40;52.10;;;20.59;51.42;100181.28;12241759;19;19914;-83
2023/07/27 17:49:35;;;;;;;;;;;21.30;51.60;;;20.52;51.70;100165.19;12240064;19;19931;-86
2023/07/27 17:53:36;;;;;;;;;;;21.40;52.00;;;20.51;51.53;100162.69;12250549;19;19923;-86
2023/07/27 17:57:38;;;;;;;;;;;21.30;52.20;;;20.35;51.18;100152.88;12247144;19;19943;-86
2023/07/27 18:01:42;;;;;;;;;;;21.30;51.90;;;20.39;51.56;100171.94;12252150;19;19926;-86
2023/07/27 18:05:47;;;;;;;;;;;21.10;52.20;;;20.34;51.63;100169.78;12252194;19;19915;-86
2023/07/27 18:09:48;;;;;;;;;;;21.20;52.50;;;20.20;51.88;100157.97;12251313;19;19919;-86